sensor_id;sensor_type;location;lat;lon;timestamp;pressure;altitude;pressure_sealevel;temperature;humidity
54980;BME280;44101;50.462;30.432;2022-09-09T00:04:41;98100.81;;;9.56;52.69
54980;BME280;44101;50.462;30.432;2022-09-09T00:07:15;98102.88;;;9.54;52.72
54980;BME280;44101;50.462;30.432;2022-09-09T00:09:53;98109.69;;;9.50;53.24
54980;BME280;44101;50.462;30.432;2022-09-09T00:12:27;98116.09;;;9.49;52.84
54980;BME280;44101;50.462;30.432;2022-09-09T00:15:11;98120.00;;;9.46;52.91
54980;BME280;44101;50.462;30.432;2022-09-09T00:17:48;98124.78;;;9.44;52.66
54980;BME280;44101;50.462;30.432;2022-09-09T00:26:18;98128.81;;;9.33;53.23
54980;BME280;44101;50.462;30.432;2022-09-09T00:28:48;98125.06;;;9.27;53.36
54980;BME280;44101;50.462;30.432;2022-09-09T00:31:20;98124.63;;;9.24;53.71
54980;BME280;44101;50.462;30.432;2022-09-09T00:33:49;98111.97;;;9.18;53.77
54980;BME280;44101;50.462;30.432;2022-09-09T00:36:18;98109.88;;;9.13;53.96
54980;BME280;44101;50.462;30.432;2022-09-09T00:38:52;98100.50;;;9.09;53.56
54980;BME280;44101;50.462;30.432;2022-09-09T00:44:33;98093.59;;;8.99;54.38
54980;BME280;44101;50.462;30.432;2022-09-09T00:50:13;98097.47;;;8.90;54.24
54980;BME280;44101;50.462;30.432;2022-09-09T00:56:00;98102.16;;;8.81;53.88
54980;BME280;44101;50.462;30.432;2022-09-09T00:58:31;98092.81;;;8.77;54.02
54980;BME280;44101;50.462;30.432;2022-09-09T01:01:08;98094.22;;;8.73;54.59
54980;BME280;44101;50.462;30.432;2022-09-09T01:03:42;98087.75;;;8.67;54.76
54980;BME280;44101;50.462;30.432;2022-09-09T01:06:32;98099.34;;;8.68;54.51
54980;BME280;44101;50.462;30.432;2022-09-09T01:12:41;98114.00;;;8.65;54.65
54980;BME280;44101;50.462;30.432;2022-09-09T01:15:19;98121.81;;;8.60;55.07
54980;BME280;44101;50.462;30.432;2022-09-09T01:17:56;98117.03;;;8.55;54.74
54980;BME280;44101;50.462;30.432;2022-09-09T01:20:29;98118.25;;;8.53;55.51
54980;BME280;44101;50.462;30.432;2022-09-09T01:28:44;98123.06;;;8.42;55.69
54980;BME280;44101;50.462;30.432;2022-09-09T01:31:23;98128.59;;;8.41;55.22
54980;BME280;44101;50.462;30.432;2022-09-09T01:33:51;98135.19;;;8.38;55.17
54980;BME280;44101;50.462;30.432;2022-09-09T01:38:52;98170.13;;;8.38;55.72
54980;BME280;44101;50.462;30.432;2022-09-09T01:41:18;98179.84;;;8.39;55.80
54980;BME280;44101;50.462;30.432;2022-09-09T01:43:55;98190.59;;;8.39;56.01
54980;BME280;44101;50.462;30.432;2022-09-09T01:46:22;98200.72;;;8.37;55.84
54980;BME280;44101;50.462;30.432;2022-09-09T01:48:52;98214.16;;;8.37;56.38
54980;BME280;44101;50.462;30.432;2022-09-09T01:51:19;98211.66;;;8.35;55.92
54980;BME280;44101;50.462;30.432;2022-09-09T01:53:47;98223.41;;;8.34;56.16
54980;BME280;44101;50.462;30.432;2022-09-09T02:04:52;98265.13;;;8.30;56.75
54980;BME280;44101;50.462;30.432;2022-09-09T02:09:59;98283.09;;;8.30;57.15
54980;BME280;44101;50.462;30.432;2022-09-09T02:12:27;98286.16;;;8.27;56.91
54980;BME280;44101;50.462;30.432;2022-09-09T02:15:05;98285.69;;;8.23;56.99
54980;BME280;44101;50.462;30.432;2022-09-09T02:17:44;98292.09;;;8.22;56.63
54980;BME280;44101;50.462;30.432;2022-09-09T02:20:14;98294.13;;;8.20;56.66
54980;BME280;44101;50.462;30.432;2022-09-09T02:22:52;98305.06;;;8.18;56.65
54980;BME280;44101;50.462;30.432;2022-09-09T02:25:23;98308.78;;;8.17;56.67
54980;BME280;44101;50.462;30.432;2022-09-09T02:27:52;98311.63;;;8.16;57.43
54980;BME280;44101;50.462;30.432;2022-09-09T02:30:19;98319.88;;;8.14;57.59
54980;BME280;44101;50.462;30.432;2022-09-09T02:32:54;98332.28;;;8.15;57.58
54980;BME280;44101;50.462;30.432;2022-09-09T02:35:37;98342.38;;;8.13;57.25
54980;BME280;44101;50.462;30.432;2022-09-09T02:38:08;98346.28;;;8.11;57.55
54980;BME280;44101;50.462;30.432;2022-09-09T02:40:38;98342.75;;;8.10;57.88
54980;BME280;44101;50.462;30.432;2022-09-09T02:43:03;98352.84;;;8.08;57.64
54980;BME280;44101;50.462;30.432;2022-09-09T02:45:46;98358.38;;;8.06;57.40
54980;BME280;44101;50.462;30.432;2022-09-09T02:48:22;98355.91;;;8.05;57.85
54980;BME280;44101;50.462;30.432;2022-09-09T02:50:58;98367.66;;;8.04;57.76
54980;BME280;44101;50.462;30.432;2022-09-09T02:53:43;98371.72;;;8.00;58.15
54980;BME280;44101;50.462;30.432;2022-09-09T02:56:17;98370.25;;;7.97;57.84
54980;BME280;44101;50.462;30.432;2022-09-09T02:58:48;98371.25;;;7.96;58.48
54980;BME280;44101;50.462;30.432;2022-09-09T03:01:14;98372.47;;;7.93;57.78
54980;BME280;44101;50.462;30.432;2022-09-09T03:03:41;98379.84;;;7.91;58.21
54980;BME280;44101;50.462;30.432;2022-09-09T03:06:10;98384.41;;;7.91;57.91
54980;BME280;44101;50.462;30.432;2022-09-09T03:08:38;98395.13;;;7.91;58.13
54980;BME280;44101;50.462;30.432;2022-09-09T03:11:04;98393.66;;;7.88;58.64
54980;BME280;44101;50.462;30.432;2022-09-09T03:13:33;98400.03;;;7.87;58.57
54980;BME280;44101;50.462;30.432;2022-09-09T03:15:59;98408.09;;;7.87;58.56
54980;BME280;44101;50.462;30.432;2022-09-09T03:18:27;98414.47;;;7.86;58.38
54980;BME280;44101;50.462;30.432;2022-09-09T03:20:54;98428.91;;;7.85;58.31
54980;BME280;44101;50.462;30.432;2022-09-09T03:23:20;98435.97;;;7.86;58.82
54980;BME280;44101;50.462;30.432;2022-09-09T03:25:51;98452.06;;;7.86;58.78
54980;BME280;44101;50.462;30.432;2022-09-09T03:28:24;98455.56;;;7.87;59.20
54980;BME280;44101;50.462;30.432;2022-09-09T03:31:04;98475.22;;;7.87;58.69
54980;BME280;44101;50.462;30.432;2022-09-09T03:33:36;98476.25;;;7.86;58.87
54980;BME280;44101;50.462;30.432;2022-09-09T03:36:03;98489.66;;;7.86;59.21
54980;BME280;44101;50.462;30.432;2022-09-09T03:38:29;98509.97;;;7.89;58.77
54980;BME280;44101;50.462;30.432;2022-09-09T03:40:56;98525.69;;;7.92;59.06
54980;BME280;44101;50.462;30.432;2022-09-09T03:43:24;98541.81;;;7.92;59.17
54980;BME280;44101;50.462;30.432;2022-09-09T03:45:52;98564.63;;;7.96;59.09
54980;BME280;44101;50.462;30.432;2022-09-09T03:48:18;98583.25;;;7.98;59.27
54980;BME280;44101;50.462;30.432;2022-09-09T03:50:55;98600.84;;;8.00;59.57
54980;BME280;44101;50.462;30.432;2022-09-09T03:53:23;98604.38;;;8.01;59.29
54980;BME280;44101;50.462;30.432;2022-09-09T03:55:52;98606.41;;;7.99;59.73
54980;BME280;44101;50.462;30.432;2022-09-09T03:58:24;98624.19;;;8.00;59.14
54980;BME280;44101;50.462;30.432;2022-09-09T04:01:03;98631.25;;;8.01;59.22
54980;BME280;44101;50.462;30.432;2022-09-09T04:03:30;98648.84;;;8.03;59.66
54980;BME280;44101;50.462;30.432;2022-09-09T04:05:57;98667.50;;;8.05;59.65
54980;BME280;44101;50.462;30.432;2022-09-09T04:08:25;98671.19;;;8.04;59.40
54980;BME280;44101;50.462;30.432;2022-09-09T04:10:52;98677.38;;;8.04;59.25
54980;BME280;44101;50.462;30.432;2022-09-09T04:13:18;98696.69;;;8.08;59.77
54980;BME280;44101;50.462;30.432;2022-09-09T04:15:54;98724.72;;;8.14;59.75
54980;BME280;44101;50.462;30.432;2022-09-09T04:18:22;98738.78;;;8.16;59.23
54980;BME280;44101;50.462;30.432;2022-09-09T04:20:50;98745.19;;;8.15;60.02
54980;BME280;44101;50.462;30.432;2022-09-09T04:23:20;98738.16;;;8.14;59.90
54980;BME280;44101;50.462;30.432;2022-09-09T04:25:47;98734.97;;;8.10;59.50
54980;BME280;44101;50.462;30.432;2022-09-09T04:28:14;98738.84;;;8.07;59.47
54980;BME280;44101;50.462;30.432;2022-09-09T04:30:41;98751.91;;;8.11;60.33
54980;BME280;44101;50.462;30.432;2022-09-09T04:33:07;98777.44;;;8.15;60.08
54980;BME280;44101;50.462;30.432;2022-09-09T04:35:33;98791.34;;;8.18;60.15
54980;BME280;44101;50.462;30.432;2022-09-09T04:38:00;98799.41;;;8.18;60.02
54980;BME280;44101;50.462;30.432;2022-09-09T04:40:31;98820.53;;;8.21;59.95
54980;BME280;44101;50.462;30.432;2022-09-09T04:43:01;98862.53;;;8.31;59.96
54980;BME280;44101;50.462;30.432;2022-09-09T04:45:28;98900.13;;;8.39;59.87
54980;BME280;44101;50.462;30.432;2022-09-09T04:47:54;98928.19;;;8.45;59.98
54980;BME280;44101;50.462;30.432;2022-09-09T04:50:21;98972.88;;;8.54;59.64
54980;BME280;44101;50.462;30.432;2022-09-09T04:52:47;99026.13;;;8.67;60.36
54980;BME280;44101;50.462;30.432;2022-09-09T04:55:14;99082.91;;;8.81;60.04
54980;BME280;44101;50.462;30.432;2022-09-09T04:57:43;99151.19;;;8.96;60.54
54980;BME280;44101;50.462;30.432;2022-09-09T05:00:11;99210.53;;;9.11;59.62
54980;BME280;44101;50.462;30.432;2022-09-09T05:02:40;99272.63;;;9.26;59.99
54980;BME280;44101;50.462;30.432;2022-09-09T05:05:08;99335.22;;;9.45;60.12
54980;BME280;44101;50.462;30.432;2022-09-09T05:07:34;99376.28;;;9.55;60.22
54980;BME280;44101;50.462;30.432;2022-09-09T05:10:00;99427.81;;;9.69;60.00
54980;BME280;44101;50.462;30.432;2022-09-09T05:12:25;99473.44;;;9.79;60.02
54980;BME280;44101;50.462;30.432;2022-09-09T05:14:53;99501.53;;;9.85;59.95
54980;BME280;44101;50.462;30.432;2022-09-09T05:17:19;99533.75;;;9.94;59.56
54980;BME280;44101;50.462;30.432;2022-09-09T05:19:45;99588.84;;;10.08;59.75
54980;BME280;44101;50.462;30.432;2022-09-09T05:22:11;99642.94;;;10.23;59.73
54980;BME280;44101;50.462;30.432;2022-09-09T05:24:45;99692.03;;;10.35;59.43
54980;BME280;44101;50.462;30.432;2022-09-09T05:27:11;99727.81;;;10.46;59.26
54980;BME280;44101;50.462;30.432;2022-09-09T05:29:38;99754.66;;;10.56;59.70
54980;BME280;44101;50.462;30.432;2022-09-09T05:32:07;99791.41;;;10.65;59.39
54980;BME280;44101;50.462;30.432;2022-09-09T05:34:35;99792.28;;;10.66;59.10
54980;BME280;44101;50.462;30.432;2022-09-09T05:37:00;99775.41;;;10.63;59.29
54980;BME280;44101;50.462;30.432;2022-09-09T05:39:26;99790.25;;;10.68;59.12
54980;BME280;44101;50.462;30.432;2022-09-09T05:41:52;99816.25;;;10.77;59.66
54980;BME280;44101;50.462;30.432;2022-09-09T05:44:18;99842.59;;;10.83;59.60
54980;BME280;44101;50.462;30.432;2022-09-09T05:46:45;99865.19;;;10.90;59.43
54980;BME280;44101;50.462;30.432;2022-09-09T05:49:12;99878.19;;;10.95;58.64
54980;BME280;44101;50.462;30.432;2022-09-09T05:51:39;99912.84;;;11.08;59.37
54980;BME280;44101;50.462;30.432;2022-09-09T05:54:10;99939.84;;;11.16;58.83
54980;BME280;44101;50.462;30.432;2022-09-09T05:56:42;99939.03;;;11.16;58.45
54980;BME280;44101;50.462;30.432;2022-09-09T05:59:11;99950.19;;;11.21;58.35
54980;BME280;44101;50.462;30.432;2022-09-09T06:01:38;99968.59;;;11.26;58.80
54980;BME280;44101;50.462;30.432;2022-09-09T06:04:07;99992.75;;;11.36;58.62
54980;BME280;44101;50.462;30.432;2022-09-09T06:06:36;99984.13;;;11.32;58.62
54980;BME280;44101;50.462;30.432;2022-09-09T06:09:10;99967.06;;;11.32;58.46
54980;BME280;44101;50.462;30.432;2022-09-09T06:11:39;99960.13;;;11.29;58.44
54980;BME280;44101;50.462;30.432;2022-09-09T06:14:24;99961.66;;;11.32;58.64
54980;BME280;44101;50.462;30.432;2022-09-09T06:16:52;99984.28;;;11.39;57.90
54980;BME280;44101;50.462;30.432;2022-09-09T06:19:22;100020.13;;;11.49;58.15
54980;BME280;44101;50.462;30.432;2022-09-09T06:21:54;100035.69;;;11.55;58.21
54980;BME280;44101;50.462;30.432;2022-09-09T06:24:20;100056.63;;;11.62;58.46
54980;BME280;44101;50.462;30.432;2022-09-09T06:26:46;100083.72;;;11.70;57.58
54980;BME280;44101;50.462;30.432;2022-09-09T06:29:17;100079.13;;;11.70;57.85
54980;BME280;44101;50.462;30.432;2022-09-09T06:31:43;100108.91;;;11.79;58.01
54980;BME280;44101;50.462;30.432;2022-09-09T06:34:13;100131.56;;;11.86;57.97
54980;BME280;44101;50.462;30.432;2022-09-09T06:36:43;100153.06;;;11.96;58.12
54980;BME280;44101;50.462;30.432;2022-09-09T06:39:11;100180.84;;;12.06;57.37
54980;BME280;44101;50.462;30.432;2022-09-09T06:41:38;100222.94;;;12.17;57.79
54980;BME280;44101;50.462;30.432;2022-09-09T06:44:07;100262.38;;;12.28;57.54
54980;BME280;44101;50.462;30.432;2022-09-09T06:46:39;100275.25;;;12.34;57.46
54980;BME280;44101;50.462;30.432;2022-09-09T06:49:06;100268.81;;;12.35;57.22
54980;BME280;44101;50.462;30.432;2022-09-09T06:51:37;100325.69;;;12.52;57.33
54980;BME280;44101;50.462;30.432;2022-09-09T06:54:10;100354.50;;;12.61;57.38
54980;BME280;44101;50.462;30.432;2022-09-09T06:56:40;100349.75;;;12.63;57.32
54980;BME280;44101;50.462;30.432;2022-09-09T06:59:11;100380.25;;;12.74;57.37
54980;BME280;44101;50.462;30.432;2022-09-09T07:01:39;100432.75;;;12.89;56.45
54980;BME280;44101;50.462;30.432;2022-09-09T07:04:10;100497.66;;;13.08;56.34
54980;BME280;44101;50.462;30.432;2022-09-09T07:06:44;100537.00;;;13.20;56.71
54980;BME280;44101;50.462;30.432;2022-09-09T07:09:15;100557.88;;;13.28;56.95
54980;BME280;44101;50.462;30.432;2022-09-09T07:11:45;100606.56;;;13.46;56.51
54980;BME280;44101;50.462;30.432;2022-09-09T07:14:12;100629.13;;;13.55;56.53
54980;BME280;44101;50.462;30.432;2022-09-09T07:16:42;100634.91;;;13.60;55.94
54980;BME280;44101;50.462;30.432;2022-09-09T07:19:09;100671.56;;;13.72;55.68
54980;BME280;44101;50.462;30.432;2022-09-09T07:21:36;100735.56;;;13.92;56.30
54980;BME280;44101;50.462;30.432;2022-09-09T07:24:02;100792.41;;;14.10;55.99
54980;BME280;44101;50.462;30.432;2022-09-09T07:26:29;100815.00;;;14.19;55.30
54980;BME280;44101;50.462;30.432;2022-09-09T07:28:58;100893.16;;;14.42;55.56
54980;BME280;44101;50.462;30.432;2022-09-09T07:31:30;100942.94;;;14.59;55.47
54980;BME280;44101;50.462;30.432;2022-09-09T07:33:57;101015.75;;;14.82;55.01
54980;BME280;44101;50.462;30.432;2022-09-09T07:36:26;101049.75;;;14.94;54.85
54980;BME280;44101;50.462;30.432;2022-09-09T07:38:56;101017.31;;;14.92;55.35
54980;BME280;44101;50.462;30.432;2022-09-09T07:41:27;100915.50;;;14.70;54.87
54980;BME280;44101;50.462;30.432;2022-09-09T07:43:53;100911.59;;;14.73;54.68
54980;BME280;44101;50.462;30.432;2022-09-09T07:46:24;100928.66;;;14.83;54.32
54980;BME280;44101;50.462;30.432;2022-09-09T07:48:53;100980.50;;;14.98;54.38
54980;BME280;44101;50.462;30.432;2022-09-09T07:51:27;100987.84;;;15.06;53.89
54980;BME280;44101;50.462;30.432;2022-09-09T07:53:56;101036.28;;;15.19;53.90
54980;BME280;44101;50.462;30.432;2022-09-09T07:56:27;101078.00;;;15.36;54.13
54980;BME280;44101;50.462;30.432;2022-09-09T07:58:55;101099.59;;;15.46;54.15
54980;BME280;44101;50.462;30.432;2022-09-09T08:01:26;101062.19;;;15.40;53.62
54980;BME280;44101;50.462;30.432;2022-09-09T08:04:04;101011.88;;;15.36;53.05
54980;BME280;44101;50.462;30.432;2022-09-09T08:06:39;100992.31;;;15.32;52.86
54980;BME280;44101;50.462;30.432;2022-09-09T08:09:09;101017.00;;;15.47;52.88
54980;BME280;44101;50.462;30.432;2022-09-09T08:11:36;101115.50;;;15.76;52.84
54980;BME280;44101;50.462;30.432;2022-09-09T08:14:03;101178.81;;;15.94;52.73
54980;BME280;44101;50.462;30.432;2022-09-09T08:16:32;101138.31;;;15.91;52.29
54980;BME280;44101;50.462;30.432;2022-09-09T08:19:00;101073.50;;;15.78;52.19
54980;BME280;44101;50.462;30.432;2022-09-09T08:21:28;101058.03;;;15.79;52.47
54980;BME280;44101;50.462;30.432;2022-09-09T08:23:56;101076.25;;;15.86;52.25
54980;BME280;44101;50.462;30.432;2022-09-09T08:26:33;101112.53;;;16.04;51.49
54980;BME280;44101;50.462;30.432;2022-09-09T08:29:02;101173.97;;;16.23;52.21
54980;BME280;44101;50.462;30.432;2022-09-09T08:31:37;101191.19;;;16.32;51.35
54980;BME280;44101;50.462;30.432;2022-09-09T08:34:06;101174.66;;;16.33;51.20
54980;BME280;44101;50.462;30.432;2022-09-09T08:36:35;101146.75;;;16.31;51.24
54980;BME280;44101;50.462;30.432;2022-09-09T08:39:03;101155.09;;;16.38;51.47
54980;BME280;44101;50.462;30.432;2022-09-09T08:41:36;101127.19;;;16.36;50.74
54980;BME280;44101;50.462;30.432;2022-09-09T08:44:16;101155.78;;;16.48;50.33
54980;BME280;44101;50.462;30.432;2022-09-09T08:52:28;101222.00;;;16.82;50.17
54980;BME280;44101;50.462;30.432;2022-09-09T08:55:28;101248.91;;;16.93;49.76
54980;BME280;44101;50.462;30.432;2022-09-09T08:58:05;101254.38;;;17.02;50.16
54980;BME280;44101;50.462;30.432;2022-09-09T09:09:01;101167.16;;;17.02;49.00
54980;BME280;44101;50.462;30.432;2022-09-09T09:11:48;101163.94;;;17.06;48.43
54980;BME280;44101;50.462;30.432;2022-09-09T09:14:25;101156.25;;;17.10;48.84
54980;BME280;44101;50.462;30.432;2022-09-09T09:16:59;101108.06;;;17.02;48.45
54980;BME280;44101;50.462;30.432;2022-09-09T09:19:28;101130.34;;;17.14;48.25
54980;BME280;44101;50.462;30.432;2022-09-09T09:22:10;101136.97;;;17.20;48.02
54980;BME280;44101;50.462;30.432;2022-09-09T09:24:52;101197.44;;;17.40;47.95
54980;BME280;44101;50.462;30.432;2022-09-09T09:29:54;101204.88;;;17.55;47.87
54980;BME280;44101;50.462;30.432;2022-09-09T09:32:24;101219.53;;;17.62;47.25
54980;BME280;44101;50.462;30.432;2022-09-09T09:34:55;101284.25;;;17.85;47.57
54980;BME280;44101;50.462;30.432;2022-09-09T09:37:29;101295.97;;;17.94;47.42
54980;BME280;44101;50.462;30.432;2022-09-09T09:40:08;101315.75;;;18.04;46.62
54980;BME280;44101;50.462;30.432;2022-09-09T09:42:34;101362.16;;;18.21;46.92
54980;BME280;44101;50.462;30.432;2022-09-09T09:45:42;101342.88;;;18.22;46.31
54980;BME280;44101;50.462;30.432;2022-09-09T09:48:11;101314.69;;;18.22;46.36
54980;BME280;44101;50.462;30.432;2022-09-09T09:50:58;101289.25;;;18.21;46.65
54980;BME280;44101;50.462;30.432;2022-09-09T09:53:26;101169.22;;;17.96;46.11
54980;BME280;44101;50.462;30.432;2022-09-09T09:56:02;101085.56;;;17.80;45.59
54980;BME280;44101;50.462;30.432;2022-09-09T09:58:50;101063.72;;;17.80;45.65
54980;BME280;44101;50.462;30.432;2022-09-09T10:03:54;101087.53;;;17.95;45.68
54980;BME280;44101;50.462;30.432;2022-09-09T10:06:38;101018.66;;;17.84;45.15
54980;BME280;44101;50.462;30.432;2022-09-09T10:09:28;101004.84;;;17.86;45.38
54980;BME280;44101;50.462;30.432;2022-09-09T10:22:49;101146.88;;;18.48;44.77
54980;BME280;44101;50.462;30.432;2022-09-09T10:28:03;101197.06;;;18.70;44.68
54980;BME280;44101;50.462;30.432;2022-09-09T10:33:32;101179.75;;;18.78;44.20
54980;BME280;44101;50.462;30.432;2022-09-09T10:38:46;101198.75;;;18.94;43.36
54980;BME280;44101;50.462;30.432;2022-09-09T10:41:18;101232.84;;;19.07;43.30
54980;BME280;44101;50.462;30.432;2022-09-09T10:52:34;101263.44;;;19.41;42.68
54980;BME280;44101;50.462;30.432;2022-09-09T10:55:19;101209.66;;;19.33;42.47
54980;BME280;44101;50.462;30.432;2022-09-09T10:57:52;101230.59;;;19.41;42.13
54980;BME280;44101;50.462;30.432;2022-09-09T11:02:56;101206.91;;;19.48;42.01
54980;BME280;44101;50.462;30.432;2022-09-09T11:05:30;101175.31;;;19.45;41.91
54980;BME280;44101;50.462;30.432;2022-09-09T11:08:10;101138.44;;;19.41;41.66
54980;BME280;44101;50.462;30.432;2022-09-09T11:13:14;101171.91;;;19.58;41.13
54980;BME280;44101;50.462;30.432;2022-09-09T11:15:49;101195.03;;;19.71;41.08
54980;BME280;44101;50.462;30.432;2022-09-09T11:18:21;101136.81;;;19.62;41.00
54980;BME280;44101;50.462;30.432;2022-09-09T11:20:59;101115.97;;;19.61;41.23
54980;BME280;44101;50.462;30.432;2022-09-09T11:23:36;101086.03;;;19.59;41.03
54980;BME280;44101;50.462;30.432;2022-09-09T11:26:05;101053.59;;;19.56;40.84
54980;BME280;44101;50.462;30.432;2022-09-09T11:36:43;100828.84;;;19.16;39.61
54980;BME280;44101;50.462;30.432;2022-09-09T11:41:45;100950.44;;;19.57;40.17
54980;BME280;44101;50.462;30.432;2022-09-09T11:44:12;100992.28;;;19.72;39.83
54980;BME280;44101;50.462;30.432;2022-09-09T11:46:42;101000.34;;;19.81;39.21
54980;BME280;44101;50.462;30.432;2022-09-09T11:49:27;100977.81;;;19.79;39.61
54980;BME280;44101;50.462;30.432;2022-09-09T11:51:53;100950.19;;;19.73;39.66
54980;BME280;44101;50.462;30.432;2022-09-09T11:54:30;100918.38;;;19.72;39.58
54980;BME280;44101;50.462;30.432;2022-09-09T11:56:57;100893.13;;;19.70;39.06
54980;BME280;44101;50.462;30.432;2022-09-09T11:59:28;100843.34;;;19.60;39.01
54980;BME280;44101;50.462;30.432;2022-09-09T12:01:56;100820.78;;;19.58;38.96
54980;BME280;44101;50.462;30.432;2022-09-09T12:06:54;100870.19;;;19.78;38.41
54980;BME280;44101;50.462;30.432;2022-09-09T12:12:07;100796.66;;;19.68;38.65
54980;BME280;44101;50.462;30.432;2022-09-09T12:17:18;100731.16;;;19.60;37.76
54980;BME280;44101;50.462;30.432;2022-09-09T12:19:44;100714.91;;;19.58;38.46
54980;BME280;44101;50.462;30.432;2022-09-09T12:22:59;100670.47;;;19.49;37.73
54980;BME280;44101;50.462;30.432;2022-09-09T12:25:31;100610.63;;;19.40;38.50
54980;BME280;44101;50.462;30.432;2022-09-09T12:28:09;100567.06;;;19.31;37.96
54980;BME280;44101;50.462;30.432;2022-09-09T12:33:38;100452.50;;;19.08;38.23
54980;BME280;44101;50.462;30.432;2022-09-09T12:36:25;100404.72;;;18.97;38.32
54980;BME280;44101;50.462;30.432;2022-09-09T12:38:54;100381.34;;;18.94;38.02
54980;BME280;44101;50.462;30.432;2022-09-09T12:41:39;100344.09;;;18.87;37.91
54980;BME280;44101;50.462;30.432;2022-09-09T12:44:06;100302.25;;;18.79;38.14
54980;BME280;44101;50.462;30.432;2022-09-09T12:46:40;100237.06;;;18.63;37.47
54980;BME280;44101;50.462;30.432;2022-09-09T12:49:37;100181.53;;;18.49;37.16
54980;BME280;44101;50.462;30.432;2022-09-09T12:52:14;100097.69;;;18.29;37.78
54980;BME280;44101;50.462;30.432;2022-09-09T12:54:45;100060.31;;;18.23;37.39
54980;BME280;44101;50.462;30.432;2022-09-09T12:57:15;100048.09;;;18.19;37.76
54980;BME280;44101;50.462;30.432;2022-09-09T12:59:43;100041.81;;;18.18;37.25
54980;BME280;44101;50.462;30.432;2022-09-09T13:02:26;100005.50;;;18.11;37.41
54980;BME280;44101;50.462;30.432;2022-09-09T13:04:52;99956.94;;;17.99;37.81
54980;BME280;44101;50.462;30.432;2022-09-09T13:07:20;99923.56;;;17.91;37.26
54980;BME280;44101;50.462;30.432;2022-09-09T13:09:47;99897.13;;;17.84;37.46
54980;BME280;44101;50.462;30.432;2022-09-09T13:12:16;99854.72;;;17.75;37.42
54980;BME280;44101;50.462;30.432;2022-09-09T13:14:45;99854.72;;;17.75;37.15
54980;BME280;44101;50.462;30.432;2022-09-09T13:17:24;99848.63;;;17.73;37.96
54980;BME280;44101;50.462;30.432;2022-09-09T13:19:51;99766.81;;;17.53;37.07
54980;BME280;44101;50.462;30.432;2022-09-09T13:22:35;99705.38;;;17.37;37.64
54980;BME280;44101;50.462;30.432;2022-09-09T13:25:17;99672.88;;;17.28;37.50
54980;BME280;44101;50.462;30.432;2022-09-09T13:30:25;99613.34;;;17.12;38.01
54980;BME280;44101;50.462;30.432;2022-09-09T13:33:01;99568.69;;;16.99;37.68
54980;BME280;44101;50.462;30.432;2022-09-09T13:35:27;99539.78;;;16.91;37.94
54980;BME280;44101;50.462;30.432;2022-09-09T13:37:53;99532.84;;;16.89;37.15
54980;BME280;44101;50.462;30.432;2022-09-09T13:40:21;99512.53;;;16.85;37.74
54980;BME280;44101;50.462;30.432;2022-09-09T13:42:56;99509.19;;;16.83;37.13
54980;BME280;44101;50.462;30.432;2022-09-09T13:45:24;99490.13;;;16.76;38.06
54980;BME280;44101;50.462;30.432;2022-09-09T13:47:53;99466.47;;;16.70;37.50
54980;BME280;44101;50.462;30.432;2022-09-09T13:52:47;99423.78;;;16.57;37.83
54980;BME280;44101;50.462;30.432;2022-09-09T13:55:14;99407.22;;;16.51;37.61
54980;BME280;44101;50.462;30.432;2022-09-09T13:57:53;99387.97;;;16.46;37.51
54980;BME280;44101;50.462;30.432;2022-09-09T14:00:19;99376.66;;;16.43;37.40
54980;BME280;44101;50.462;30.432;2022-09-09T14:02:46;99359.53;;;16.35;37.68
54980;BME280;44101;50.462;30.432;2022-09-09T14:05:12;99348.00;;;16.33;37.46
54980;BME280;44101;50.462;30.432;2022-09-09T14:07:39;99349.91;;;16.33;37.54
54980;BME280;44101;50.462;30.432;2022-09-09T14:10:06;99361.59;;;16.33;37.46
54980;BME280;44101;50.462;30.432;2022-09-09T14:12:32;99356.41;;;16.32;37.55
54980;BME280;44101;50.462;30.432;2022-09-09T14:14:57;99345.06;;;16.28;38.06
54980;BME280;44101;50.462;30.432;2022-09-09T14:17:25;99331.28;;;16.23;38.05
54980;BME280;44101;50.462;30.432;2022-09-09T14:19:54;99328.56;;;16.23;38.01
54980;BME280;44101;50.462;30.432;2022-09-09T14:22:22;99334.81;;;16.23;38.25
54980;BME280;44101;50.462;30.432;2022-09-09T14:24:47;99326.25;;;16.20;37.80
54980;BME280;44101;50.462;30.432;2022-09-09T14:27:13;99319.34;;;16.17;38.04
54980;BME280;44101;50.462;30.432;2022-09-09T14:29:39;99310.78;;;16.13;37.92
54980;BME280;44101;50.462;30.432;2022-09-09T14:32:05;99299.50;;;16.10;37.74
54980;BME280;44101;50.462;30.432;2022-09-09T14:34:30;99293.63;;;16.06;38.25
54980;BME280;44101;50.462;30.432;2022-09-09T14:36:58;99290.91;;;16.06;38.56
54980;BME280;44101;50.462;30.432;2022-09-09T14:39:24;99291.13;;;16.05;38.28
54980;BME280;44101;50.462;30.432;2022-09-09T14:41:49;99292.19;;;16.04;37.67
54980;BME280;44101;50.462;30.432;2022-09-09T14:44:15;99280.03;;;15.99;37.73
54980;BME280;44101;50.462;30.432;2022-09-09T14:46:41;99283.81;;;15.98;37.71
54980;BME280;44101;50.462;30.432;2022-09-09T14:49:08;99271.47;;;15.96;38.17
54980;BME280;44101;50.462;30.432;2022-09-09T14:51:36;99268.13;;;15.94;38.11
54980;BME280;44101;50.462;30.432;2022-09-09T14:54:02;99263.91;;;15.91;38.07
54980;BME280;44101;50.462;30.432;2022-09-09T14:56:30;99269.34;;;15.91;38.29
54980;BME280;44101;50.462;30.432;2022-09-09T14:58:58;99255.56;;;15.86;38.53
54980;BME280;44101;50.462;30.432;2022-09-09T15:01:26;99239.66;;;15.83;38.19
54980;BME280;44101;50.462;30.432;2022-09-09T15:04:04;99235.25;;;15.82;38.59
54980;BME280;44101;50.462;30.432;2022-09-09T15:06:34;99236.31;;;15.81;38.67
54980;BME280;44101;50.462;30.432;2022-09-09T15:09:02;99236.53;;;15.79;37.81
54980;BME280;44101;50.462;30.432;2022-09-09T15:11:30;99238.63;;;15.77;37.85